createdAt,value
2022-11-22T00:00:31.408Z,95915.84
2022-11-22T00:04:33.418Z,95908.03
2022-11-22T00:08:35.489Z,95912.25
2022-11-22T00:12:38.589Z,95897.31
2022-11-22T00:16:40.639Z,95885.25
2022-11-22T00:20:42.791Z,95873.19
2022-11-22T00:24:46.228Z,95874.22
2022-11-22T00:28:48.263Z,95869.19
2022-11-22T00:32:50.365Z,95868.34
2022-11-22T00:36:52.361Z,95863.91
2022-11-22T00:40:54.369Z,95855.94
2022-11-22T00:44:56.384Z,95850.75
2022-11-22T00:48:58.407Z,95847.41
2022-11-22T00:53:00.412Z,95845.81
2022-11-22T00:57:02.455Z,95839.59
2022-11-22T01:01:04.589Z,95836.09
2022-11-22T01:05:06.864Z,95841.47
2022-11-22T01:09:08.860Z,95854.59
2022-11-22T01:13:12.246Z,95850.25
2022-11-22T01:17:14.535Z,95853.44
2022-11-22T01:21:16.573Z,95850.75
2022-11-22T01:25:18.615Z,95849.25
2022-11-22T01:29:20.633Z,95850.91
2022-11-22T01:33:23.085Z,95856.78
2022-11-22T01:37:25.107Z,95850.66
2022-11-22T01:41:27.214Z,95865.25
2022-11-22T01:45:29.152Z,95832.97
2022-11-22T01:49:35.874Z,95864.81
2022-11-22T01:53:39.776Z,95870.13
2022-11-22T01:57:44.032Z,95873.56
2022-11-22T02:01:46.379Z,95882.22
2022-11-22T02:05:50.409Z,95878.03
2022-11-22T02:09:53.359Z,95877.00
2022-11-22T02:13:56.199Z,95879.44
2022-11-22T02:17:58.189Z,95883.88
2022-11-22T02:22:11.157Z,95885.84
2022-11-22T02:26:14.654Z,95884.63
2022-11-22T02:30:17.396Z,95887.66
2022-11-22T02:34:19.547Z,95884.84
2022-11-22T02:38:24.844Z,95893.50
2022-11-22T02:42:30.243Z,95888.94
2022-11-22T02:46:32.271Z,95894.53
2022-11-22T02:50:34.463Z,95884.00
2022-11-22T02:54:36.498Z,95880.63
2022-11-22T02:58:38.766Z,95892.06
2022-11-22T03:02:40.773Z,95894.53
2022-11-22T03:06:42.994Z,95905.63
2022-11-22T03:10:45.031Z,95896.97
2022-11-22T03:14:47.074Z,95889.34
2022-11-22T03:18:49.073Z,95887.97
2022-11-22T03:22:51.152Z,95906.97
2022-11-22T03:26:53.158Z,95917.38
2022-11-22T03:30:55.158Z,95915.53
2022-11-22T03:34:57.188Z,95920.72
2022-11-22T03:38:59.343Z,95925.94
2022-11-22T03:43:01.874Z,95923.06
2022-11-22T03:47:03.921Z,95919.53
2022-11-22T03:51:07.085Z,95932.44
2022-11-22T03:55:09.285Z,95948.03
2022-11-22T03:59:11.330Z,95959.13
2022-11-22T04:03:13.335Z,95956.25
2022-11-22T04:07:15.405Z,95951.06
2022-11-22T04:11:17.497Z,95948.34
2022-11-22T04:15:19.566Z,95944.00
2022-11-22T04:19:21.568Z,95948.63
2022-11-22T04:23:30.688Z,95945.44
2022-11-22T04:27:35.691Z,95938.75
2022-11-22T04:31:56.906Z,95945.03
2022-11-22T04:35:59.133Z,95944.38
2022-11-22T04:40:01.103Z,95945.75
2022-11-22T04:44:21.744Z,95943.66
2022-11-22T04:48:23.719Z,95932.84
2022-11-22T04:52:44.383Z,95944.34
2022-11-22T04:56:46.359Z,95947.28
2022-11-22T05:00:49.258Z,95951.69
2022-11-22T05:04:51.232Z,95960.50
2022-11-22T05:08:53.225Z,95961.69
2022-11-22T05:12:56.096Z,95975.00
2022-11-22T05:16:58.147Z,95974.25
2022-11-22T05:21:11.754Z,95968.38
2022-11-22T05:25:13.879Z,95983.19
2022-11-22T05:29:15.906Z,95999.31
2022-11-22T05:33:17.945Z,95997.44
2022-11-22T05:37:19.934Z,96008.59
2022-11-22T05:41:21.995Z,96005.09
2022-11-22T05:45:24.054Z,96006.75
2022-11-22T05:49:26.063Z,96011.94
2022-11-22T05:53:28.077Z,96026.31
2022-11-22T05:57:32.490Z,96032.75
2022-11-22T06:01:34.483Z,96028.22
2022-11-22T06:05:36.465Z,96037.13
2022-11-22T06:09:38.488Z,96044.13
2022-11-22T06:13:43.938Z,96049.34
2022-11-22T06:17:45.984Z,96054.22
2022-11-22T06:21:47.990Z,96055.56
2022-11-22T06:25:57.193Z,96046.44
2022-11-22T06:29:59.213Z,96060.28
2022-11-22T06:34:01.247Z,96062.78
2022-11-22T06:38:03.240Z,96090.88
2022-11-22T06:42:05.310Z,96093.53
2022-11-22T06:46:08.334Z,96103.69
2022-11-22T06:50:10.325Z,96099.75
2022-11-22T06:54:12.526Z,96090.63
2022-11-22T06:58:14.518Z,96095.66
2022-11-22T07:02:16.584Z,96100.88
2022-11-22T07:06:19.500Z,96099.44
2022-11-22T07:10:21.638Z,96096.66
2022-11-22T07:14:23.646Z,96112.03
2022-11-22T07:18:25.763Z,96116.88
2022-11-22T07:22:28.580Z,96121.53
2022-11-22T07:26:30.584Z,96127.50
2022-11-22T07:30:32.587Z,96136.94
2022-11-22T07:34:34.632Z,96135.78
2022-11-22T07:38:37.034Z,96134.91
2022-11-22T07:42:39.014Z,96143.19
2022-11-22T07:46:41.047Z,96140.28
2022-11-22T07:50:43.481Z,96142.97
2022-11-22T07:54:45.511Z,96139.00
2022-11-22T07:58:47.571Z,96145.97
2022-11-22T08:02:49.582Z,96154.13
2022-11-22T08:06:51.671Z,96158.50
2022-11-22T08:10:53.803Z,96160.91
2022-11-22T08:14:55.804Z,96174.53
2022-11-22T08:18:57.993Z,96188.63
2022-11-22T08:23:00.014Z,96194.31
2022-11-22T08:27:02.042Z,96186.44
2022-11-22T08:31:07.138Z,96191.47
2022-11-22T08:35:09.414Z,96197.19
2022-11-22T08:39:11.415Z,96195.31
2022-11-22T08:43:13.408Z,96183.06
2022-11-22T08:47:15.413Z,96181.06
2022-11-22T08:51:17.448Z,96183.41
2022-11-22T08:55:19.479Z,96188.16
2022-11-22T08:59:21.591Z,96202.03
2022-11-22T09:03:23.791Z,96197.00
2022-11-22T09:11:47.745Z,96203.06
2022-11-22T09:15:49.747Z,96217.53
2022-11-22T09:19:51.778Z,96215.44
2022-11-22T09:23:54.577Z,96220.75
2022-11-22T09:28:00.562Z,96209.97
2022-11-22T09:32:03.382Z,96205.44
2022-11-22T09:36:11.815Z,96212.50
2022-11-22T09:40:15.330Z,96213.25
2022-11-22T09:45:03.617Z,96218.53
2022-11-22T09:49:29.285Z,96208.88
2022-11-22T09:53:38.120Z,96217.16
2022-11-22T09:57:47.086Z,96217.16
2022-11-22T10:02:18.045Z,96208.34
2022-11-22T10:06:27.359Z,96207.69
2022-11-22T10:10:38.673Z,96200.63
2022-11-22T10:15:02.597Z,96192.25
2022-11-22T10:19:21.985Z,96186.81
2022-11-22T10:23:25.805Z,96192.47
2022-11-22T10:27:32.436Z,96189.50
2022-11-22T10:31:45.918Z,96180.91
2022-11-22T10:35:54.090Z,96183.63
2022-11-22T10:40:11.734Z,96185.78
2022-11-22T10:44:32.492Z,96185.06
2022-11-22T10:48:57.891Z,96183.50
2022-11-22T10:53:10.155Z,96185.00
2022-11-22T10:57:30.999Z,96194.31
2022-11-22T11:01:44.558Z,96185.34
2022-11-22T11:10:37.257Z,96198.94
2022-11-22T11:14:48.459Z,96195.00
2022-11-22T11:18:57.887Z,96197.03
2022-11-22T11:23:14.114Z,96192.00
2022-11-22T11:27:19.710Z,96179.53
2022-11-22T11:31:22.010Z,96190.56
2022-11-22T11:35:29.062Z,96194.13
2022-11-22T11:39:33.670Z,96203.09
2022-11-22T11:43:42.276Z,96205.25
2022-11-22T11:47:44.308Z,96193.81
2022-11-22T11:51:48.872Z,96205.34
2022-11-22T11:55:51.125Z,96195.56
2022-11-22T11:59:55.537Z,96181.91
2022-11-22T12:04:02.005Z,96180.94
2022-11-22T12:08:28.736Z,96183.69
2022-11-22T12:12:51.318Z,96192.31
2022-11-22T12:16:58.678Z,96180.84
2022-11-22T12:21:00.721Z,96187.28
2022-11-22T12:25:32.466Z,96181.34
2022-11-22T12:29:38.663Z,96181.13
2022-11-22T12:33:43.167Z,96172.56
2022-11-22T12:38:11.307Z,96181.41
2022-11-22T12:42:28.094Z,96177.38
2022-11-22T12:46:44.424Z,96176.84
2022-11-22T12:50:53.937Z,96176.47
2022-11-22T12:55:02.339Z,96171.69
2022-11-22T12:59:10.370Z,96174.28
2022-11-22T13:03:17.901Z,96172.09
2022-11-22T13:07:52.180Z,96162.88
2022-11-22T13:12:03.730Z,96162.69
2022-11-22T13:16:13.084Z,96152.25
2022-11-22T13:20:20.099Z,96153.19
2022-11-22T13:24:31.271Z,96156.38
2022-11-22T13:28:36.244Z,96152.41
2022-11-22T13:32:42.851Z,96149.78
2022-11-22T13:36:47.631Z,96144.59
2022-11-22T13:40:51.181Z,96144.84
2022-11-22T13:44:56.277Z,96139.91
2022-11-22T13:49:14.399Z,96141.50
2022-11-22T13:53:19.391Z,96136.00
2022-11-22T13:57:38.173Z,96143.44
2022-11-22T14:01:40.147Z,96136.72
2022-11-22T14:05:47.998Z,96133.56
2022-11-22T14:09:53.115Z,96141.53
2022-11-22T14:14:13.403Z,96139.31
2022-11-22T14:18:30.726Z,96143.47
2022-11-22T14:22:45.559Z,96133.72
2022-11-22T14:27:20.473Z,96135.78
2022-11-22T14:31:29.347Z,96144.50
2022-11-22T14:35:36.949Z,96148.22
2022-11-22T14:39:44.759Z,96143.56
2022-11-22T14:43:49.893Z,96147.25
2022-11-22T14:47:56.516Z,96158.75
2022-11-22T14:51:59.280Z,96157.50
2022-11-22T14:56:17.156Z,96164.59
2022-11-22T15:00:21.221Z,96172.28
2022-11-22T15:09:10.289Z,96161.22
2022-11-22T15:09:45.123Z,96169.25
2022-11-22T15:14:31.770Z,96163.88
2022-11-22T15:58:45.914Z,96213.78
2022-11-22T16:02:50.229Z,96217.31
2022-11-22T16:06:52.768Z,96219.00
2022-11-22T16:10:54.863Z,96217.50
2022-11-22T16:14:56.863Z,96228.91
2022-11-22T16:19:21.641Z,96234.28
2022-11-22T16:23:33.201Z,96232.78
2022-11-22T16:27:35.448Z,96240.84
2022-11-22T16:31:38.400Z,96239.16
2022-11-22T16:35:40.376Z,96238.31
2022-11-22T16:39:42.349Z,96248.81
2022-11-22T16:43:44.886Z,96240.31
2022-11-22T16:47:54.608Z,96244.88
2022-11-22T16:52:11.851Z,96248.25
2022-11-22T16:56:25.114Z,96243.19
2022-11-22T17:00:27.325Z,96236.28
2022-11-22T17:04:30.740Z,96250.31
2022-11-22T17:08:32.745Z,96258.06
2022-11-22T17:12:35.074Z,96261.56
2022-11-22T17:16:37.306Z,96261.75
2022-11-22T17:20:39.905Z,96267.53
2022-11-22T17:24:42.432Z,96261.66
2022-11-22T17:28:44.463Z,96262.41
2022-11-22T17:32:46.490Z,96265.88
2022-11-22T17:36:48.485Z,96262.66
2022-11-22T17:40:58.490Z,96267.69
2022-11-22T17:45:00.478Z,96264.00
2022-11-22T17:49:02.725Z,96261.41
2022-11-22T17:53:05.224Z,96262.31
2022-11-22T17:57:07.324Z,96268.38
2022-11-22T18:01:14.858Z,96264.91
2022-11-22T18:05:16.881Z,96276.03
2022-11-22T18:09:18.861Z,96284.50
2022-11-22T18:13:22.195Z,96291.03
2022-11-22T18:17:24.299Z,96292.91
2022-11-22T18:21:31.836Z,96295.50
2022-11-22T18:25:36.554Z,96298.97
2022-11-22T18:29:53.395Z,96303.31
2022-11-22T18:33:55.558Z,96294.59
2022-11-22T18:37:57.665Z,96297.94
2022-11-22T18:41:59.823Z,96304.66
2022-11-22T18:46:03.993Z,96315.06
2022-11-22T18:50:12.184Z,96320.13
2022-11-22T18:54:14.532Z,96311.38
2022-11-22T18:58:16.532Z,96315.84
2022-11-22T19:02:19.927Z,96320.38
2022-11-22T19:06:23.182Z,96312.41
2022-11-22T19:10:25.407Z,96316.56
2022-11-22T19:14:30.635Z,96313.00
2022-11-22T19:18:41.313Z,96312.31
2022-11-22T19:22:44.983Z,96313.84
2022-11-22T19:26:46.965Z,96318.03
2022-11-22T19:30:49.172Z,96319.53
2022-11-22T19:34:51.344Z,96322.00
2022-11-22T19:38:53.400Z,96315.75
2022-11-22T19:42:55.409Z,96326.09
2022-11-22T19:46:57.435Z,96330.47
2022-11-22T19:51:05.620Z,96331.22
2022-11-22T19:55:07.977Z,96323.38
2022-11-22T19:59:15.517Z,96332.72
2022-11-22T20:03:17.528Z,96335.16
2022-11-22T20:07:19.544Z,96344.69
2022-11-22T20:11:21.640Z,96346.31
2022-11-22T20:15:23.777Z,96351.38
2022-11-22T20:19:28.618Z,96341.56
2022-11-22T20:23:36.468Z,96351.03
2022-11-22T20:27:38.472Z,96345.81
2022-11-22T20:31:41.224Z,96346.53
2022-11-22T20:35:43.281Z,96356.25
2022-11-22T20:39:45.280Z,96353.16
2022-11-22T20:43:49.356Z,96351.91
2022-11-22T20:47:51.377Z,96366.41
2022-11-22T20:51:53.768Z,96359.91
2022-11-22T20:55:56.546Z,96368.28
2022-11-22T20:59:58.619Z,96379.19
2022-11-22T21:04:00.700Z,96375.91
2022-11-22T21:08:05.387Z,96383.56
2022-11-22T21:12:07.561Z,96386.75
2022-11-22T21:16:22.672Z,96392.50
2022-11-22T21:20:25.811Z,96400.97
2022-11-22T21:24:28.185Z,96404.19
2022-11-22T21:28:36.143Z,96415.19
2022-11-22T21:32:38.118Z,96420.34
2022-11-22T21:36:40.171Z,96406.84
2022-11-22T21:40:49.995Z,96402.53
2022-11-22T21:44:52.528Z,96411.50
2022-11-22T21:48:55.783Z,96406.22
2022-11-22T21:52:58.684Z,96411.00
2022-11-22T21:57:02.939Z,96410.69
2022-11-22T22:01:10.926Z,96414.75
2022-11-22T22:05:17.598Z,96415.91
2022-11-22T22:09:19.713Z,96419.34
2022-11-22T22:13:21.721Z,96419.50
2022-11-22T22:17:23.723Z,96433.09
2022-11-22T22:21:26.019Z,96427.44
2022-11-22T22:25:28.008Z,96423.78
2022-11-22T22:29:30.445Z,96417.41
2022-11-22T22:33:33.906Z,96421.72
2022-11-22T22:37:35.999Z,96415.75
2022-11-22T22:41:38.055Z,96430.41
2022-11-22T22:45:40.050Z,96445.91
2022-11-22T22:49:42.068Z,96439.06
2022-11-22T22:53:45.308Z,96445.13
2022-11-22T22:57:47.306Z,96448.63
2022-11-22T23:01:49.281Z,96457.22
2022-11-22T23:05:51.381Z,96457.22
2022-11-22T23:09:53.406Z,96449.34
2022-11-22T23:13:55.412Z,96458.06
2022-11-22T23:17:57.443Z,96466.72
2022-11-22T23:21:59.607Z,96460.44
2022-11-22T23:26:07.130Z,96471.53
2022-11-22T23:30:09.701Z,96475.59
2022-11-22T23:34:11.864Z,96483.00
2022-11-22T23:38:13.913Z,96476.09
2022-11-22T23:42:15.916Z,96480.41
2022-11-22T23:46:18.053Z,96482.31
2022-11-22T23:50:20.115Z,96480.94
2022-11-22T23:54:22.127Z,96484.31
2022-11-22T23:58:24.135Z,96486.91
